sensor_id;sensor_type;location;lat;lon;timestamp;pressure;altitude;pressure_sealevel;temperature;humidity
62011;BME280;47967;51.756;10.174;2023-04-06T04:02:16;100064.75;;;-2.95;80.27
62011;BME280;47967;51.756;10.174;2023-04-06T04:06:19;100073.50;;;-2.95;80.92
62011;BME280;47967;51.756;10.174;2023-04-06T04:10:22;100074.25;;;-2.93;80.71
62011;BME280;47967;51.756;10.174;2023-04-06T04:14:24;100075.41;;;-2.97;80.69
62011;BME280;47967;51.756;10.174;2023-04-06T04:18:29;100082.88;;;-2.91;80.97
62011;BME280;47967;51.756;10.174;2023-04-06T04:22:31;100079.84;;;-2.84;81.40
62011;BME280;47967;51.756;10.174;2023-04-06T04:26:34;100078.47;;;-2.90;80.97
62011;BME280;47967;51.756;10.174;2023-04-06T04:30:37;100087.44;;;-2.93;81.50
62011;BME280;47967;51.756;10.174;2023-04-06T04:34:44;100079.84;;;-2.97;81.47
62011;BME280;47967;51.756;10.174;2023-04-06T04:38:57;100079.00;;;-2.98;81.65
62011;BME280;47967;51.756;10.174;2023-04-06T04:43:00;100078.25;;;-2.87;81.62
62011;BME280;47967;51.756;10.174;2023-04-06T04:47:06;100089.44;;;-2.83;81.50
62011;BME280;47967;51.756;10.174;2023-04-06T04:51:18;100087.66;;;-2.83;81.65
62011;BME280;47967;51.756;10.174;2023-04-06T04:55:31;100087.88;;;-2.73;81.32
62011;BME280;47967;51.756;10.174;2023-04-06T04:59:34;100086.06;;;-2.72;81.56
62011;BME280;47967;51.756;10.174;2023-04-06T05:03:49;100093.56;;;-2.79;81.13
62011;BME280;47967;51.756;10.174;2023-04-06T05:07:53;100087.88;;;-2.73;80.88
62011;BME280;47967;51.756;10.174;2023-04-06T05:12:10;100084.69;;;-2.65;80.47
62011;BME280;47967;51.756;10.174;2023-04-06T05:16:22;100096.94;;;-2.51;80.74
62011;BME280;47967;51.756;10.174;2023-04-06T05:20:25;100085.31;;;-2.49;80.44
62011;BME280;47967;51.756;10.174;2023-04-06T05:24:29;100093.44;;;-2.39;80.07
62011;BME280;47967;51.756;10.174;2023-04-06T05:28:32;100090.97;;;-2.29;80.50
62011;BME280;47967;51.756;10.174;2023-04-06T05:32:36;100090.59;;;-2.12;80.54
62011;BME280;47967;51.756;10.174;2023-04-06T05:36:39;100095.28;;;-1.91;80.01
62011;BME280;47967;51.756;10.174;2023-04-06T05:40:52;100095.13;;;-1.77;79.02
62011;BME280;47967;51.756;10.174;2023-04-06T05:44:59;100092.69;;;-1.55;78.72
62011;BME280;47967;51.756;10.174;2023-04-06T05:49:01;100093.25;;;-1.39;79.00
62011;BME280;47967;51.756;10.174;2023-04-06T05:53:08;100091.03;;;-1.21;78.16
62011;BME280;47967;51.756;10.174;2023-04-06T05:57:17;100093.34;;;-1.05;78.02
62011;BME280;47967;51.756;10.174;2023-04-06T06:01:19;100086.13;;;-1.03;77.01
62011;BME280;47967;51.756;10.174;2023-04-06T06:05:22;100088.22;;;-0.84;77.49
62011;BME280;47967;51.756;10.174;2023-04-06T06:09:26;100083.78;;;-0.72;77.04
62011;BME280;47967;51.756;10.174;2023-04-06T06:13:41;100083.41;;;-0.56;76.67
62011;BME280;47967;51.756;10.174;2023-04-06T06:17:44;100086.53;;;-0.39;76.19
62011;BME280;47967;51.756;10.174;2023-04-06T06:21:47;100079.31;;;-0.37;75.38
62011;BME280;47967;51.756;10.174;2023-04-06T06:25:49;100080.34;;;-0.06;75.42
62011;BME280;47967;51.756;10.174;2023-04-06T06:29:56;100089.84;;;0.08;75.07
62011;BME280;47967;51.756;10.174;2023-04-06T06:33:59;100088.34;;;0.27;74.63
62011;BME280;47967;51.756;10.174;2023-04-06T06:38:01;100086.13;;;0.43;73.97
62011;BME280;47967;51.756;10.174;2023-04-06T06:42:05;100079.03;;;0.65;73.56
62011;BME280;47967;51.756;10.174;2023-04-06T06:46:28;100094.91;;;0.98;72.91
62011;BME280;47967;51.756;10.174;2023-04-06T06:50:30;100089.31;;;1.22;71.73
62011;BME280;47967;51.756;10.174;2023-04-06T06:54:33;100084.66;;;1.45;71.68
62011;BME280;47967;51.756;10.174;2023-04-06T06:58:36;100088.97;;;1.67;71.39
62011;BME280;47967;51.756;10.174;2023-04-06T07:02:40;100078.69;;;1.94;70.00
62011;BME280;47967;51.756;10.174;2023-04-06T07:06:43;100073.41;;;2.13;69.13
62011;BME280;47967;51.756;10.174;2023-04-06T07:10:45;100077.19;;;2.30;68.42
62011;BME280;47967;51.756;10.174;2023-04-06T07:14:48;100069.22;;;2.50;68.70
62011;BME280;47967;51.756;10.174;2023-04-06T07:18:52;100078.06;;;2.70;68.37
62011;BME280;47967;51.756;10.174;2023-04-06T07:22:55;100070.72;;;2.92;68.53
62011;BME280;47967;51.756;10.174;2023-04-06T07:26:58;100070.78;;;3.19;68.10
62011;BME280;47967;51.756;10.174;2023-04-06T07:31:02;100066.38;;;3.48;67.91
62011;BME280;47967;51.756;10.174;2023-04-06T07:35:07;100070.97;;;3.83;67.07
62011;BME280;47967;51.756;10.174;2023-04-06T07:39:09;100063.78;;;4.12;65.34
62011;BME280;47967;51.756;10.174;2023-04-06T07:43:13;100066.41;;;4.40;64.54
62011;BME280;47967;51.756;10.174;2023-04-06T07:47:16;100060.19;;;4.75;65.31
62011;BME280;47967;51.756;10.174;2023-04-06T07:51:21;100063.34;;;4.97;64.89
62011;BME280;47967;51.756;10.174;2023-04-06T07:55:23;100060.09;;;5.38;62.60
62011;BME280;47967;51.756;10.174;2023-04-06T07:59:26;100056.59;;;5.80;58.44
62011;BME280;47967;51.756;10.174;2023-04-06T08:03:29;100055.72;;;6.14;56.23
62011;BME280;47967;51.756;10.174;2023-04-06T08:07:33;100056.44;;;6.41;54.97
62011;BME280;47967;51.756;10.174;2023-04-06T08:11:36;100055.44;;;6.59;54.32
62011;BME280;47967;51.756;10.174;2023-04-06T08:15:39;100055.94;;;6.95;53.83
62011;BME280;47967;51.756;10.174;2023-04-06T08:19:42;100053.72;;;7.24;52.49
62011;BME280;47967;51.756;10.174;2023-04-06T08:23:46;100052.69;;;7.41;49.20
62011;BME280;47967;51.756;10.174;2023-04-06T08:27:48;100046.75;;;7.54;50.10
62011;BME280;47967;51.756;10.174;2023-04-06T08:31:51;100044.84;;;7.63;48.71
62011;BME280;47967;51.756;10.174;2023-04-06T08:35:53;100050.00;;;7.81;49.11
62011;BME280;47967;51.756;10.174;2023-04-06T08:39:58;100046.38;;;7.97;49.01
62011;BME280;47967;51.756;10.174;2023-04-06T08:44:02;100047.00;;;8.07;47.50
62011;BME280;47967;51.756;10.174;2023-04-06T08:48:05;100047.28;;;8.21;47.06
62011;BME280;47967;51.756;10.174;2023-04-06T08:52:10;100042.44;;;8.39;47.02
62011;BME280;47967;51.756;10.174;2023-04-06T08:56:14;100047.91;;;8.54;47.10
62011;BME280;47967;51.756;10.174;2023-04-06T09:00:17;100038.69;;;8.72;47.12
62011;BME280;47967;51.756;10.174;2023-04-06T09:04:21;100042.91;;;8.89;47.12
62011;BME280;47967;51.756;10.174;2023-04-06T09:08:23;100044.59;;;9.05;46.78
62011;BME280;47967;51.756;10.174;2023-04-06T09:12:29;100042.97;;;9.19;45.50
62011;BME280;47967;51.756;10.174;2023-04-06T09:16:39;100040.16;;;9.27;45.49
62011;BME280;47967;51.756;10.174;2023-04-06T09:20:42;100043.44;;;9.38;45.03
62011;BME280;47967;51.756;10.174;2023-04-06T09:24:45;100040.63;;;9.61;44.80
62011;BME280;47967;51.756;10.174;2023-04-06T09:28:50;100035.53;;;9.51;44.64
62011;BME280;47967;51.756;10.174;2023-04-06T09:32:55;100031.06;;;9.73;44.92
62011;BME280;47967;51.756;10.174;2023-04-06T09:36:58;100033.91;;;9.87;45.70
62011;BME280;47967;51.756;10.174;2023-04-06T09:41:00;100022.78;;;10.12;43.79
62011;BME280;47967;51.756;10.174;2023-04-06T09:45:05;100027.38;;;10.33;44.37
62011;BME280;47967;51.756;10.174;2023-04-06T09:49:09;100018.59;;;10.46;43.93
62011;BME280;47967;51.756;10.174;2023-04-06T09:53:13;100020.16;;;10.55;44.24
62011;BME280;47967;51.756;10.174;2023-04-06T09:57:20;100014.53;;;10.78;43.21
62011;BME280;47967;51.756;10.174;2023-04-06T10:01:28;100015.75;;;10.76;42.73
62011;BME280;47967;51.756;10.174;2023-04-06T10:05:35;100009.81;;;10.87;43.51
62011;BME280;47967;51.756;10.174;2023-04-06T10:09:39;100001.72;;;10.87;42.18
62011;BME280;47967;51.756;10.174;2023-04-06T10:13:42;99991.69;;;11.09;42.36
62011;BME280;47967;51.756;10.174;2023-04-06T10:17:46;99995.47;;;11.15;40.26
62011;BME280;47967;51.756;10.174;2023-04-06T10:21:51;99997.53;;;11.13;41.21
62011;BME280;47967;51.756;10.174;2023-04-06T10:25:58;99993.94;;;11.34;41.71
62011;BME280;47967;51.756;10.174;2023-04-06T10:30:02;99987.34;;;11.50;41.58
62011;BME280;47967;51.756;10.174;2023-04-06T10:34:06;99990.97;;;11.71;42.87
62011;BME280;47967;51.756;10.174;2023-04-06T10:38:09;99984.34;;;11.73;41.19
62011;BME280;47967;51.756;10.174;2023-04-06T10:42:12;99985.97;;;11.74;39.82
62011;BME280;47967;51.756;10.174;2023-04-06T10:46:24;99986.28;;;11.93;39.33
62011;BME280;47967;51.756;10.174;2023-04-06T10:50:29;99976.34;;;12.07;39.54
62011;BME280;47967;51.756;10.174;2023-04-06T10:54:32;99975.09;;;12.09;38.85
62011;BME280;47967;51.756;10.174;2023-04-06T10:58:34;99952.22;;;12.05;38.09
62011;BME280;47967;51.756;10.174;2023-04-06T11:02:37;99959.91;;;12.08;37.62
62011;BME280;47967;51.756;10.174;2023-04-06T11:06:46;99965.72;;;11.98;37.57
62011;BME280;47967;51.756;10.174;2023-04-06T11:10:49;99966.06;;;11.89;35.96
62011;BME280;47967;51.756;10.174;2023-04-06T11:14:55;99962.41;;;12.10;35.94
62011;BME280;47967;51.756;10.174;2023-04-06T11:19:04;99953.88;;;12.06;36.04
62011;BME280;47967;51.756;10.174;2023-04-06T11:23:28;99951.63;;;12.23;37.26
62011;BME280;47967;51.756;10.174;2023-04-06T11:27:31;99956.78;;;12.18;36.76
62011;BME280;47967;51.756;10.174;2023-04-06T11:31:38;99959.13;;;12.35;36.51
62011;BME280;47967;51.756;10.174;2023-04-06T11:35:41;99951.22;;;12.73;36.56
62011;BME280;47967;51.756;10.174;2023-04-06T11:39:48;99937.84;;;12.92;36.52
62011;BME280;47967;51.756;10.174;2023-04-06T11:43:54;99938.22;;;13.02;36.11
62011;BME280;47967;51.756;10.174;2023-04-06T11:47:58;99943.47;;;12.90;35.51
62011;BME280;47967;51.756;10.174;2023-04-06T11:52:02;99926.38;;;12.96;34.67
62011;BME280;47967;51.756;10.174;2023-04-06T11:56:06;99930.97;;;12.82;35.73
62011;BME280;47967;51.756;10.174;2023-04-06T12:00:10;99930.34;;;12.87;35.72
62011;BME280;47967;51.756;10.174;2023-04-06T12:04:13;99924.66;;;13.16;34.62
62011;BME280;47967;51.756;10.174;2023-04-06T12:08:16;99921.25;;;13.34;36.21
62011;BME280;47967;51.756;10.174;2023-04-06T12:12:20;99910.00;;;13.43;35.23
62011;BME280;47967;51.756;10.174;2023-04-06T12:16:22;99921.88;;;13.42;35.92
62011;BME280;47967;51.756;10.174;2023-04-06T12:20:25;99906.31;;;13.18;35.20
62011;BME280;47967;51.756;10.174;2023-04-06T12:24:28;99896.69;;;13.28;35.81
62011;BME280;47967;51.756;10.174;2023-04-06T12:28:32;99904.59;;;13.37;36.01
62011;BME280;47967;51.756;10.174;2023-04-06T12:32:34;99889.50;;;13.61;35.84
62011;BME280;47967;51.756;10.174;2023-04-06T12:36:37;99891.75;;;13.64;35.71
62011;BME280;47967;51.756;10.174;2023-04-06T12:40:40;99896.06;;;13.79;35.32
62011;BME280;47967;51.756;10.174;2023-04-06T12:44:44;99892.59;;;13.65;36.33
62011;BME280;47967;51.756;10.174;2023-04-06T12:48:48;99893.34;;;13.79;35.33
62011;BME280;47967;51.756;10.174;2023-04-06T12:52:51;99889.19;;;13.76;35.45
62011;BME280;47967;51.756;10.174;2023-04-06T12:56:53;99876.59;;;13.88;34.29
62011;BME280;47967;51.756;10.174;2023-04-06T13:00:58;99873.28;;;14.12;36.49
62011;BME280;47967;51.756;10.174;2023-04-06T13:05:04;99872.66;;;13.84;34.96
62011;BME280;47967;51.756;10.174;2023-04-06T13:09:07;99865.03;;;14.00;34.94
62011;BME280;47967;51.756;10.174;2023-04-06T13:13:10;99860.09;;;14.15;36.17
62011;BME280;47967;51.756;10.174;2023-04-06T13:17:13;99853.28;;;14.31;35.94
62011;BME280;47967;51.756;10.174;2023-04-06T13:21:18;99852.47;;;14.31;35.61
62011;BME280;47967;51.756;10.174;2023-04-06T13:25:22;99845.34;;;14.55;35.74
62011;BME280;47967;51.756;10.174;2023-04-06T13:29:24;99847.44;;;14.34;35.35
62011;BME280;47967;51.756;10.174;2023-04-06T13:33:29;99847.31;;;13.97;34.82
62011;BME280;47967;51.756;10.174;2023-04-06T13:37:32;99841.44;;;14.25;34.18
62011;BME280;47967;51.756;10.174;2023-04-06T13:41:35;99838.28;;;14.29;34.50
62011;BME280;47967;51.756;10.174;2023-04-06T13:45:37;99841.22;;;14.27;35.66
62011;BME280;47967;51.756;10.174;2023-04-06T13:49:41;99842.59;;;14.36;35.74
62011;BME280;47967;51.756;10.174;2023-04-06T13:53:44;99833.59;;;14.61;34.04
62011;BME280;47967;51.756;10.174;2023-04-06T13:57:46;99823.72;;;14.85;34.65
62011;BME280;47967;51.756;10.174;2023-04-06T14:01:49;99811.19;;;15.03;33.48
62011;BME280;47967;51.756;10.174;2023-04-06T14:05:53;99804.13;;;15.32;34.70
62011;BME280;47967;51.756;10.174;2023-04-06T14:09:58;99808.75;;;15.32;33.53
62011;BME280;47967;51.756;10.174;2023-04-06T14:14:01;99806.34;;;15.35;34.16
62011;BME280;47967;51.756;10.174;2023-04-06T14:18:04;99810.97;;;15.35;33.78
62011;BME280;47967;51.756;10.174;2023-04-06T14:22:08;99796.03;;;15.56;32.94
62011;BME280;47967;51.756;10.174;2023-04-06T14:26:11;99795.50;;;15.78;33.46
62011;BME280;47967;51.756;10.174;2023-04-06T14:30:14;99790.47;;;15.93;33.35
62011;BME280;47967;51.756;10.174;2023-04-06T14:34:17;99796.25;;;15.85;32.87
62011;BME280;47967;51.756;10.174;2023-04-06T14:38:21;99794.03;;;16.17;32.39
62011;BME280;47967;51.756;10.174;2023-04-06T14:42:23;99787.84;;;16.46;32.00
62011;BME280;47967;51.756;10.174;2023-04-06T14:46:27;99779.19;;;16.61;32.32
62011;BME280;47967;51.756;10.174;2023-04-06T14:50:29;99778.97;;;16.51;32.20
62011;BME280;47967;51.756;10.174;2023-04-06T14:54:33;99778.63;;;16.47;32.85
62011;BME280;47967;51.756;10.174;2023-04-06T14:58:36;99781.19;;;16.77;31.94
62011;BME280;47967;51.756;10.174;2023-04-06T15:02:38;99775.13;;;16.75;30.84
62011;BME280;47967;51.756;10.174;2023-04-06T15:06:42;99778.72;;;16.64;30.85
62011;BME280;47967;51.756;10.174;2023-04-06T15:10:45;99777.25;;;16.97;31.56
62011;BME280;47967;51.756;10.174;2023-04-06T15:14:48;99772.28;;;16.82;31.49
62011;BME280;47967;51.756;10.174;2023-04-06T15:18:50;99775.78;;;16.42;30.93
62011;BME280;47967;51.756;10.174;2023-04-06T15:22:53;99772.31;;;16.70;30.29
62011;BME280;47967;51.756;10.174;2023-04-06T15:26:57;99770.13;;;16.84;29.60
62011;BME280;47967;51.756;10.174;2023-04-06T15:31:00;99767.22;;;17.15;30.63
62011;BME280;47967;51.756;10.174;2023-04-06T15:35:11;99775.34;;;16.86;31.80
62011;BME280;47967;51.756;10.174;2023-04-06T15:39:13;99768.22;;;16.08;31.62
62011;BME280;47967;51.756;10.174;2023-04-06T15:43:17;99763.19;;;15.69;31.44
62011;BME280;47967;51.756;10.174;2023-04-06T15:47:20;99766.41;;;15.78;31.69
62011;BME280;47967;51.756;10.174;2023-04-06T15:51:23;99763.63;;;15.55;31.92
62011;BME280;47967;51.756;10.174;2023-04-06T15:55:26;99768.34;;;15.90;31.56
62011;BME280;47967;51.756;10.174;2023-04-06T15:59:30;99763.38;;;16.10;31.41
62011;BME280;47967;51.756;10.174;2023-04-06T16:03:32;99759.13;;;16.79;30.83
62011;BME280;47967;51.756;10.174;2023-04-06T16:07:35;99758.09;;;16.68;30.30
62011;BME280;47967;51.756;10.174;2023-04-06T16:11:38;99756.69;;;16.65;30.37
62011;BME280;47967;51.756;10.174;2023-04-06T16:15:42;99764.50;;;16.62;31.63
62011;BME280;47967;51.756;10.174;2023-04-06T16:19:45;99761.53;;;16.63;31.14
62011;BME280;47967;51.756;10.174;2023-04-06T16:23:47;99762.78;;;16.08;31.34
62011;BME280;47967;51.756;10.174;2023-04-06T16:27:50;99758.47;;;15.77;31.83
62011;BME280;47967;51.756;10.174;2023-04-06T16:31:54;99763.09;;;15.76;32.79
62011;BME280;47967;51.756;10.174;2023-04-06T16:35:56;99753.81;;;15.42;33.43
62011;BME280;47967;51.756;10.174;2023-04-06T16:39:59;99758.59;;;14.97;33.23
62011;BME280;47967;51.756;10.174;2023-04-06T16:44:01;99752.00;;;14.75;33.17
62011;BME280;47967;51.756;10.174;2023-04-06T16:48:05;99751.16;;;14.74;33.83
62011;BME280;47967;51.756;10.174;2023-04-06T16:52:09;99761.53;;;14.96;34.24
62011;BME280;47967;51.756;10.174;2023-04-06T16:56:11;99760.00;;;15.00;34.70
62011;BME280;47967;51.756;10.174;2023-04-06T17:00:15;99750.84;;;14.82;34.81
62011;BME280;47967;51.756;10.174;2023-04-06T17:04:19;99756.69;;;14.67;35.23
62011;BME280;47967;51.756;10.174;2023-04-06T17:08:22;99755.06;;;14.60;36.09
62011;BME280;47967;51.756;10.174;2023-04-06T17:12:25;99758.91;;;14.15;37.06
62011;BME280;47967;51.756;10.174;2023-04-06T17:16:27;99760.00;;;13.82;38.09
62011;BME280;47967;51.756;10.174;2023-04-06T17:20:31;99759.94;;;13.63;39.03
62011;BME280;47967;51.756;10.174;2023-04-06T17:24:35;99754.66;;;13.75;39.62
62011;BME280;47967;51.756;10.174;2023-04-06T17:28:38;99756.75;;;13.48;40.69
62011;BME280;47967;51.756;10.174;2023-04-06T17:32:40;99758.34;;;13.17;42.21
62011;BME280;47967;51.756;10.174;2023-04-06T17:36:45;99759.47;;;12.63;44.31
62011;BME280;47967;51.756;10.174;2023-04-06T17:40:48;99768.06;;;12.33;45.80
62011;BME280;47967;51.756;10.174;2023-04-06T17:44:51;99769.38;;;11.84;47.41
62011;BME280;47967;51.756;10.174;2023-04-06T17:48:54;99780.34;;;11.49;47.83
62011;BME280;47967;51.756;10.174;2023-04-06T17:52:58;99776.66;;;10.88;47.27
62011;BME280;47967;51.756;10.174;2023-04-06T17:57:00;99787.84;;;10.85;47.62
62011;BME280;47967;51.756;10.174;2023-04-06T18:01:07;99782.09;;;11.01;48.88
62011;BME280;47967;51.756;10.174;2023-04-06T18:05:11;99788.03;;;10.77;47.29
62011;BME280;47967;51.756;10.174;2023-04-06T18:09:15;99794.00;;;10.30;51.76
62011;BME280;47967;51.756;10.174;2023-04-06T18:13:18;99804.75;;;10.02;52.60
62011;BME280;47967;51.756;10.174;2023-04-06T18:17:21;99803.50;;;9.76;51.63
62011;BME280;47967;51.756;10.174;2023-04-06T18:21:24;99803.91;;;9.73;49.64
62011;BME280;47967;51.756;10.174;2023-04-06T18:25:28;99810.22;;;9.58;49.42
62011;BME280;47967;51.756;10.174;2023-04-06T18:29:31;99807.19;;;9.47;48.41
62011;BME280;47967;51.756;10.174;2023-04-06T18:33:34;99816.22;;;9.02;51.17
62011;BME280;47967;51.756;10.174;2023-04-06T18:37:36;99820.13;;;8.85;50.51
62011;BME280;47967;51.756;10.174;2023-04-06T18:41:40;99821.09;;;8.77;50.65
62011;BME280;47967;51.756;10.174;2023-04-06T18:45:43;99819.97;;;8.86;49.61
62011;BME280;47967;51.756;10.174;2023-04-06T18:49:46;99820.16;;;8.70;50.40
62011;BME280;47967;51.756;10.174;2023-04-06T18:53:50;99839.00;;;8.55;50.99
62011;BME280;47967;51.756;10.174;2023-04-06T18:57:54;99835.53;;;8.46;50.81
62011;BME280;47967;51.756;10.174;2023-04-06T19:01:56;99833.47;;;8.33;50.97
62011;BME280;47967;51.756;10.174;2023-04-06T19:05:59;99845.97;;;8.26;51.42
62011;BME280;47967;51.756;10.174;2023-04-06T19:10:03;99842.75;;;8.30;51.00
62011;BME280;47967;51.756;10.174;2023-04-06T19:14:07;99845.50;;;8.22;51.14
62011;BME280;47967;51.756;10.174;2023-04-06T19:18:10;99845.28;;;8.09;51.98
62011;BME280;47967;51.756;10.174;2023-04-06T19:22:12;99853.72;;;8.06;52.10
62011;BME280;47967;51.756;10.174;2023-04-06T19:26:17;99851.34;;;7.88;52.99
62011;BME280;47967;51.756;10.174;2023-04-06T19:30:22;99849.16;;;7.45;55.07
62011;BME280;47967;51.756;10.174;2023-04-06T19:34:25;99856.25;;;7.37;55.31
62011;BME280;47967;51.756;10.174;2023-04-06T19:38:28;99856.84;;;7.16;55.76
62011;BME280;47967;51.756;10.174;2023-04-06T19:42:32;99865.59;;;7.10;55.54
62011;BME280;47967;51.756;10.174;2023-04-06T19:46:35;99866.94;;;7.14;55.46
62011;BME280;47967;51.756;10.174;2023-04-06T19:50:38;99856.91;;;7.08;55.29
62011;BME280;47967;51.756;10.174;2023-04-06T19:54:41;99854.94;;;6.94;55.46
62011;BME280;47967;51.756;10.174;2023-04-06T19:58:48;99861.72;;;6.81;56.11
62011;BME280;47967;51.756;10.174;2023-04-06T20:02:51;99855.56;;;6.64;56.69
62011;BME280;47967;51.756;10.174;2023-04-06T20:06:54;99856.78;;;6.45;57.24
62011;BME280;47967;51.756;10.174;2023-04-06T20:11:00;99861.00;;;6.23;57.75
62011;BME280;47967;51.756;10.174;2023-04-06T20:15:03;99859.84;;;6.25;57.80
62011;BME280;47967;51.756;10.174;2023-04-06T20:19:07;99864.00;;;6.20;58.04
62011;BME280;47967;51.756;10.174;2023-04-06T20:23:10;99861.31;;;6.28;57.00
62011;BME280;47967;51.756;10.174;2023-04-06T20:27:13;99856.28;;;6.50;55.21
62011;BME280;47967;51.756;10.174;2023-04-06T20:31:15;99854.25;;;6.52;54.91
62011;BME280;47967;51.756;10.174;2023-04-06T20:35:19;99848.72;;;6.53;55.08
62011;BME280;47967;51.756;10.174;2023-04-06T20:39:22;99857.16;;;6.34;55.73
62011;BME280;47967;51.756;10.174;2023-04-06T20:43:25;99853.47;;;6.35;55.03
62011;BME280;47967;51.756;10.174;2023-04-06T20:47:29;99858.16;;;6.24;55.27
62011;BME280;47967;51.756;10.174;2023-04-06T20:51:33;99848.63;;;6.22;54.77
62011;BME280;47967;51.756;10.174;2023-04-06T20:55:38;99863.19;;;6.28;54.18
62011;BME280;47967;51.756;10.174;2023-04-06T20:59:41;99863.69;;;6.23;53.75
